Time;durP1;ratioP1;P1;durP2;ratioP2;P2;SDS_P1;SDS_P2;PMS_P1;PMS_P2;Temp;Humidity;BMP_temperature;BMP_pressure;BME280_temperature;BME280_humidity;BME280_pressure;Samples;Min_cycle;Max_cycle;Signal;HPM_P1;HPM_P2
2022/05/14 00:00:28;;;;;;;13.18;3.83;;;;;;;18.80;48.74;100492.09;4958116;29;20110;-81
2022/05/14 00:02:55;;;;;;;7.18;3.83;;;;;;;18.78;48.73;100494.13;4957319;29;20517;-82
2022/05/14 00:05:23;;;;;;;14.05;3.88;;;;;;;18.76;48.79;100490.75;4956803;28;20027;-81
2022/05/14 00:07:50;;;;;;;8.68;3.88;;;;;;;18.72;48.68;100489.41;4957712;28;20106;-81
2022/05/14 00:10:17;;;;;;;18.35;4.35;;;;;;;18.71;48.91;100487.72;4958230;28;20030;-83
2022/05/14 00:15:27;;;;;;;7.78;3.58;;;;;;;18.70;49.02;100481.41;4957794;29;20034;-83
2022/05/14 00:17:54;;;;;;;13.27;3.80;;;;;;;18.66;48.87;100473.78;4957397;28;20031;-82
2022/05/14 00:20:23;;;;;;;16.85;3.72;;;;;;;18.64;48.89;100475.84;4959359;29;20027;-83
2022/05/14 00:22:50;;;;;;;17.50;4.07;;;;;;;18.48;49.38;100453.09;4981520;28;20026;-82
2022/05/14 00:25:15;;;;;;;12.85;4.00;;;;;;;18.46;49.62;100457.88;4958534;28;20114;-83
2022/05/14 00:27:43;;;;;;;10.93;3.60;;;;;;;18.55;49.58;100466.03;4944267;28;20050;-83
2022/05/14 00:30:10;;;;;;;13.77;4.10;;;;;;;18.47;49.75;100461.44;4956918;28;20031;-83
2022/05/14 00:32:37;;;;;;;16.30;4.30;;;;;;;18.43;49.64;100458.25;4957110;28;20062;-82
2022/05/14 00:35:04;;;;;;;11.32;4.75;;;;;;;18.38;49.88;100465.22;4956658;28;20031;-82
2022/05/14 00:37:30;;;;;;;11.77;3.75;;;;;;;18.36;50.13;100459.97;4956844;28;20720;-83
2022/05/14 00:39:55;;;;;;;12.85;4.10;;;;;;;18.26;50.26;100450.31;4956584;28;20043;-83
2022/05/14 00:42:21;;;;;;;8.23;3.70;;;;;;;18.24;50.25;100447.78;4956960;28;20037;-83
2022/05/14 00:44:46;;;;;;;19.50;4.22;;;;;;;18.23;50.67;100456.97;4957120;28;20031;-83
2022/05/14 00:47:16;;;;;;;16.92;4.03;;;;;;;18.20;51.01;100459.19;4957197;29;20031;-82
2022/05/14 00:49:42;;;;;;;8.48;3.88;;;;;;;18.03;51.36;100452.16;4957130;28;20248;-82
2022/05/14 00:52:14;;;;;;;19.55;4.38;;;;;;;17.98;51.69;100440.97;4957793;29;20028;-83
2022/05/14 00:55:00;;;;;;;18.08;5.50;;;;;;;17.91;51.70;100438.94;4966375;29;20082;-82
2022/05/14 00:57:29;;;;;;;5.57;3.60;;;;;;;17.92;51.73;100454.22;4970542;28;20043;-82
2022/05/14 00:59:57;;;;;;;9.70;3.67;;;;;;;17.89;51.68;100442.84;4967272;29;20394;-82
2022/05/14 01:02:22;;;;;;;10.23;4.45;;;;;;;17.88;51.51;100452.06;4963847;29;20065;-83
2022/05/14 01:04:48;;;;;;;20.35;6.60;;;;;;;17.91;51.32;100451.69;4957644;28;20023;-82
2022/05/14 01:07:20;;;;;;;15.50;5.32;;;;;;;17.89;51.63;100442.84;4958205;28;20047;-83
2022/05/14 01:09:55;;;;;;;12.95;4.88;;;;;;;17.90;51.58;100445.41;4958303;28;20038;-83
2022/05/14 01:12:23;;;;;;;17.60;4.35;;;;;;;17.87;51.82;100440.31;4956235;28;20426;-82
2022/05/14 01:14:49;;;;;;;23.65;5.07;;;;;;;17.83;51.94;100438.09;4956728;28;20035;-81
2022/05/14 01:17:14;;;;;;;11.65;4.68;;;;;;;17.80;52.09;100438.47;4955657;28;20027;-81
2022/05/14 01:19:40;;;;;;;14.02;5.35;;;;;;;17.71;52.51;100445.81;4956435;28;20450;-82
2022/05/14 01:22:09;;;;;;;11.70;4.25;;;;;;;17.73;52.54;100422.00;4956765;28;20035;-82
2022/05/14 01:27:49;;;;;;;13.00;4.45;;;;;;;17.68;52.55;100423.53;4956533;29;20564;-83
2022/05/14 01:30:16;;;;;;;11.05;4.30;;;;;;;17.64;52.41;100422.22;4955993;28;20027;-83
2022/05/14 01:32:45;;;;;;;11.68;4.43;;;;;;;17.59;52.89;100419.16;4956691;28;20070;-81
2022/05/14 01:35:17;;;;;;;7.40;3.97;;;;;;;17.55;53.02;100417.81;4955967;28;20517;-81
2022/05/14 01:37:43;;;;;;;5.90;3.90;;;;;;;17.47;53.16;100410.50;4956317;28;20462;-84
2022/05/14 01:40:09;;;;;;;18.23;4.80;;;;;;;17.55;53.03;100406.94;4955930;28;20458;-82
2022/05/14 01:42:34;;;;;;;12.10;4.05;;;;;;;17.50;53.13;100414.72;4956298;28;20038;-82
2022/05/14 01:45:00;;;;;;;16.48;4.35;;;;;;;17.47;53.54;100417.78;4955413;29;20027;-81
2022/05/14 01:47:25;;;;;;;11.30;5.13;;;;;;;17.45;53.45;100408.97;4955989;29;20023;-81
2022/05/14 01:49:51;;;;;;;18.92;5.35;;;;;;;17.41;53.57;100401.16;4956185;29;20470;-82
2022/05/14 01:52:16;;;;;;;8.60;4.80;;;;;;;17.41;53.57;100405.75;4956691;28;20028;-82
2022/05/14 01:54:42;;;;;;;12.57;4.30;;;;;;;17.40;53.57;100404.91;4956144;28;20039;-82
2022/05/14 01:57:07;;;;;;;14.05;4.45;;;;;;;17.32;53.69;100387.78;4960190;29;20028;-81
2022/05/14 01:59:33;;;;;;;8.07;4.75;;;;;;;17.36;53.86;100395.41;4976159;28;20043;-83
2022/05/14 02:01:58;;;;;;;13.82;4.22;;;;;;;17.30;54.05;100397.97;4957146;28;20134;-82
2022/05/14 02:04:24;;;;;;;14.75;5.18;;;;;;;17.30;53.82;100404.28;4955423;29;20035;-81
2022/05/14 02:06:49;;;;;;;8.55;3.53;;;;;;;17.32;54.02;100410.38;4956121;29;20106;-81
2022/05/14 02:09:15;;;;;;;21.77;4.43;;;;;;;17.26;53.74;100400.19;4955339;28;20489;-81
2022/05/14 02:11:42;;;;;;;8.90;3.67;;;;;;;17.21;54.27;100386.28;4955595;29;20027;-82
2022/05/14 02:14:08;;;;;;;10.80;4.78;;;;;;;17.26;54.16;100381.16;4955509;29;20111;-81
2022/05/14 02:16:34;;;;;;;6.78;4.38;;;;;;;17.29;54.21;100383.53;4955232;28;20031;-82
2022/05/14 02:19:00;;;;;;;9.75;4.30;;;;;;;17.32;54.53;100385.06;4955734;28;20037;-81
2022/05/14 02:21:26;;;;;;;10.82;4.57;;;;;;;17.28;54.63;100380.97;4955204;28;20030;-82
2022/05/14 02:23:53;;;;;;;14.40;4.18;;;;;;;17.27;54.62;100388.31;4955049;29;20417;-82
2022/05/14 02:26:19;;;;;;;20.65;5.15;;;;;;;17.25;54.62;100384.88;4939481;29;20027;-82
2022/05/14 02:28:45;;;;;;;15.88;4.32;;;;;;;17.25;54.74;100384.88;4955420;29;20034;-82
2022/05/14 02:31:10;;;;;;;21.35;5.28;;;;;;;17.18;54.65;100373.03;4955755;29;20422;-81
2022/05/14 02:33:36;;;;;;;22.58;5.35;;;;;;;17.26;54.94;100386.59;4955649;28;20027;-81
2022/05/14 02:36:03;;;;;;;9.50;4.45;;;;;;;17.17;54.68;100384.91;4954969;28;20031;-82
2022/05/14 02:38:30;;;;;;;13.57;4.90;;;;;;;17.20;54.63;100386.44;4955567;28;20031;-82
2022/05/14 02:40:57;;;;;;;16.30;4.70;;;;;;;17.13;55.13;100380.00;4954633;28;20466;-82
2022/05/14 02:43:23;;;;;;;16.25;5.07;;;;;;;17.12;54.98;100375.59;4955359;29;20513;-81
2022/05/14 02:45:49;;;;;;;9.88;4.40;;;;;;;17.17;55.08;100379.47;4955639;29;20107;-81
2022/05/14 02:48:14;;;;;;;10.82;5.55;;;;;;;17.11;55.17;100382.03;4954740;29;20023;-81
2022/05/14 02:50:40;;;;;;;24.80;5.10;;;;;;;17.05;55.13;100378.16;4954902;28;20482;-82
2022/05/14 02:53:06;;;;;;;18.05;4.65;;;;;;;17.07;55.40;100395.13;4955169;29;20493;-82
2022/05/14 02:55:32;;;;;;;11.25;5.18;;;;;;;17.02;55.40;100383.06;4955239;29;20027;-82
2022/05/14 02:57:57;;;;;;;16.08;5.25;;;;;;;17.05;55.33;100386.31;4955553;29;20031;-83
2022/05/14 03:00:23;;;;;;;16.55;5.40;;;;;;;17.06;55.65;100385.28;4955374;29;20059;-83
2022/05/14 03:02:49;;;;;;;29.95;6.05;;;;;;;17.05;55.46;100391.75;4955192;28;20065;-81
2022/05/14 03:05:17;;;;;;;23.52;6.45;;;;;;;17.07;55.70;100392.41;4955279;28;20027;-84
2022/05/14 03:07:43;;;;;;;23.33;6.72;;;;;;;16.93;55.78;100374.09;4955168;28;20023;-83
2022/05/14 03:10:09;;;;;;;15.80;4.90;;;;;;;17.02;55.69;100399.38;4955668;28;20023;-82
2022/05/14 03:12:34;;;;;;;24.10;4.95;;;;;;;16.99;55.77;100389.72;4955914;28;20036;-82
2022/05/14 03:15:01;;;;;;;22.15;5.47;;;;;;;16.99;55.98;100392.44;4955171;28;20030;-83
2022/05/14 03:17:26;;;;;;;32.70;5.68;;;;;;;16.97;56.20;100380.03;4954992;28;20024;-81
2022/05/14 03:19:52;;;;;;;16.58;6.55;;;;;;;17.01;56.32;100389.53;4954979;28;20031;-82
2022/05/14 03:22:18;;;;;;;29.50;6.38;;;;;;;16.98;56.46;100388.00;4955317;28;20079;-82
2022/05/14 03:24:44;;;;;;;35.50;7.18;;;;;;;16.97;56.46;100383.56;4954973;28;20059;-82
2022/05/14 03:27:12;;;;;;;24.88;6.13;;;;;;;16.95;56.65;100391.06;4954468;28;20055;-82
2022/05/14 03:29:38;;;;;;;25.00;5.57;;;;;;;16.85;56.71;100384.94;4954794;28;20031;-81
2022/05/14 03:32:04;;;;;;;21.73;5.95;;;;;;;16.86;56.80;100390.22;4955547;29;20425;-82
2022/05/14 03:34:31;;;;;;;21.45;5.90;;;;;;;16.85;56.80;100393.94;4969183;28;20016;-80
2022/05/14 03:36:58;;;;;;;14.25;4.38;;;;;;;16.86;57.19;100389.38;4979822;28;20110;-82
2022/05/14 03:39:23;;;;;;;15.30;5.00;;;;;;;16.82;56.73;100382.56;4955139;28;20031;-82
2022/05/14 03:41:49;;;;;;;14.07;5.75;;;;;;;16.88;56.76;100392.75;4957709;29;20034;-82
2022/05/14 03:44:15;;;;;;;23.08;5.90;;;;;;;16.89;56.46;100383.59;4957501;29;20553;-82
2022/05/14 03:46:42;;;;;;;15.48;6.72;;;;;;;16.95;56.93;100390.22;4957915;29;20035;-82
2022/05/14 03:49:07;;;;;;;21.42;7.22;;;;;;;17.02;56.95;100405.66;4957836;28;20039;-82
2022/05/14 03:51:32;;;;;;;22.77;7.47;;;;;;;17.00;56.81;100391.38;4958149;29;20041;-81
2022/05/14 03:53:58;;;;;;;20.80;8.38;;;;;;;17.15;56.80;100406.00;4957267;28;20054;-82
2022/05/14 03:56:24;;;;;;;23.83;11.85;;;;;;;17.08;56.24;100399.53;4957794;29;20027;-81
2022/05/14 03:58:50;;;;;;;17.52;9.52;;;;;;;17.25;56.85;100412.06;4957693;28;20034;-79
2022/05/14 04:01:16;;;;;;;25.13;9.18;;;;;;;17.28;56.81;100405.44;4956895;29;20039;-78
2022/05/14 04:03:42;;;;;;;33.83;11.13;;;;;;;17.30;56.91;100404.28;4958922;29;20046;-89
2022/05/14 04:06:08;;;;;;;32.95;12.38;;;;;;;17.38;56.86;100404.25;4958601;28;20024;-89
2022/05/14 04:08:35;;;;;;;22.65;12.43;;;;;;;17.40;56.75;100395.88;4961467;28;20039;-89
2022/05/14 04:11:00;;;;;;;23.02;10.90;;;;;;;17.61;56.77;100422.56;4958921;28;20474;-88
2022/05/14 04:13:26;;;;;;;28.05;10.40;;;;;;;17.66;56.20;100414.72;4959512;28;20031;-88
2022/05/14 04:15:52;;;;;;;28.13;7.80;;;;;;;17.69;55.80;100408.94;4961007;28;20478;-89
2022/05/14 04:18:24;;;;;;;14.27;7.45;;;;;;;17.87;55.20;100423.13;4961558;28;20023;-90
2022/05/14 04:20:53;;;;;;;14.02;6.38;;;;;;;17.93;55.18;100433.31;4958430;28;20115;-81
2022/05/14 04:23:21;;;;;;;18.90;6.95;;;;;;;17.97;55.67;100417.47;4957355;28;20043;-79
2022/05/14 04:25:51;;;;;;;25.52;8.20;;;;;;;18.04;55.97;100422.03;4957247;29;20042;-79
2022/05/14 04:28:18;;;;;;;29.98;6.82;;;;;;;18.18;56.02;100424.00;4971726;28;20035;-79
2022/05/14 04:30:46;;;;;;;18.42;6.30;;;;;;;18.18;55.57;100417.72;4957462;29;20484;-86
2022/05/14 04:33:16;;;;;;;34.85;8.77;;;;;;;18.38;55.67;100432.53;4956516;28;20090;-81
2022/05/14 04:35:42;;;;;;;47.70;9.25;;;;;;;18.43;55.71;100420.13;4963584;28;20211;-88
2022/05/14 04:38:07;;;;;;;31.63;8.02;;;;;;;18.45;55.72;100414.47;4958434;29;20105;-88
2022/05/14 04:40:34;;;;;;;25.88;9.13;;;;;;;18.46;55.42;100405.28;4963304;29;20035;-87
2022/05/14 04:43:00;;;;;;;30.88;10.25;;;;;;;18.57;55.09;100415.78;4961447;28;20027;-90
2022/05/14 04:45:26;;;;;;;22.05;10.10;;;;;;;18.70;55.21;100415.19;4959996;29;20397;-83
2022/05/14 04:47:52;;;;;;;28.17;10.93;;;;;;;18.79;54.97;100414.06;4957373;28;20042;-83
2022/05/14 04:50:18;;;;;;;25.83;11.20;;;;;;;18.87;55.18;100414.00;4957480;28;20043;-82
2022/05/14 04:52:49;;;;;;;44.72;11.68;;;;;;;18.95;55.12;100413.94;4957487;28;20078;-85
2022/05/14 04:55:15;;;;;;;31.90;12.68;;;;;;;18.98;55.07;100408.97;4958440;28;20493;-84
2022/05/14 04:57:43;;;;;;;43.92;10.95;;;;;;;19.00;55.13;100415.09;4955961;29;20134;-82
2022/05/14 05:00:10;;;;;;;34.10;11.95;;;;;;;19.08;55.29;100402.44;4956412;29;20465;-81
2022/05/14 05:05:19;;;;;;;47.92;12.00;;;;;;;19.32;55.32;100422.13;4956588;29;20042;-80
2022/05/14 05:07:47;;;;;;;26.00;10.07;;;;;;;19.36;55.21;100412.50;4955050;28;20019;-82
2022/05/14 05:10:13;;;;;;;38.38;9.93;;;;;;;19.49;54.58;100420.94;4941256;29;20103;-81
2022/05/14 05:12:39;;;;;;;27.83;8.82;;;;;;;19.62;53.64;100411.25;4978485;28;20042;-82
2022/05/14 05:15:04;;;;;;;33.17;9.40;;;;;;;19.70;53.44;100411.13;4961490;28;20030;-82
2022/05/14 05:17:30;;;;;;;32.17;9.50;;;;;;;19.73;53.46;100418.94;4955996;28;20118;-82
2022/05/14 05:19:55;;;;;;;30.17;9.95;;;;;;;19.87;53.06;100409.91;4955566;28;20071;-82
2022/05/14 05:22:21;;;;;;;33.75;9.82;;;;;;;19.87;52.74;100409.91;4956026;29;20494;-82
2022/05/14 05:24:48;;;;;;;34.28;9.60;;;;;;;20.00;52.16;100421.84;4954934;29;20406;-82
2022/05/14 05:27:14;;;;;;;43.97;10.43;;;;;;;20.03;51.75;100415.16;4955644;28;20061;-82
2022/05/14 05:29:39;;;;;;;25.42;9.25;;;;;;;20.08;51.53;100413.56;4955711;28;20110;-82
2022/05/14 05:32:05;;;;;;;36.83;7.13;;;;;;;20.12;50.71;100419.47;4955733;28;20027;-82
2022/05/14 05:34:31;;;;;;;32.85;8.95;;;;;;;20.22;50.47;100420.00;4955709;28;20066;-82
2022/05/14 05:36:56;;;;;;;21.58;8.80;;;;;;;20.34;49.80;100423.97;4955612;29;20051;-78
2022/05/14 05:39:22;;;;;;;19.65;7.22;;;;;;;20.33;49.36;100429.63;4955194;29;20113;-80
2022/05/14 05:41:47;;;;;;;26.83;7.15;;;;;;;20.44;49.35;100435.44;4955075;29;20031;-78
2022/05/14 05:44:13;;;;;;;41.03;8.48;;;;;;;20.48;49.33;100441.38;4955666;28;20045;-83
2022/05/14 05:46:39;;;;;;;25.02;6.55;;;;;;;20.59;49.26;100443.56;4956227;29;20037;-83
2022/05/14 05:49:07;;;;;;;30.35;7.47;;;;;;;20.64;49.40;100441.94;4948329;29;20474;-83
2022/05/14 05:51:33;;;;;;;20.08;7.05;;;;;;;20.80;49.05;100445.47;4948289;28;20031;-82
2022/05/14 05:56:56;;;;;;;19.17;7.13;;;;;;;21.02;48.49;100449.88;4954803;29;20033;-83
2022/05/14 05:59:22;;;;;;;28.27;6.03;;;;;;;21.10;48.23;100444.31;4955941;28;20054;-85
2022/05/14 06:01:48;;;;;;;19.33;7.15;;;;;;;21.17;48.25;100442.47;4962252;28;20047;-84
2022/05/14 06:04:14;;;;;;;25.25;7.10;;;;;;;21.30;47.94;100442.59;4967269;28;20027;-83
2022/05/14 06:06:42;;;;;;;26.02;5.75;;;;;;;21.36;47.43;100446.41;4936688;29;20383;-83
2022/05/14 06:09:10;;;;;;;33.83;8.30;;;;;;;21.43;46.92;100445.44;4937486;29;20031;-84
2022/05/14 06:11:36;;;;;;;23.30;7.15;;;;;;;21.57;46.76;100440.88;4940407;29;20081;-82
2022/05/14 06:14:01;;;;;;;27.95;11.20;;;;;;;21.65;47.25;100444.31;4970259;28;20035;-80
2022/05/14 06:16:26;;;;;;;46.38;14.80;;;;;;;21.79;47.37;100442.50;4953054;28;20038;-81
2022/05/14 06:18:52;;;;;;;40.03;14.85;;;;;;;21.95;47.01;100449.59;4946111;29;20089;-81
2022/05/14 06:21:18;;;;;;;45.22;14.15;;;;;;;22.05;45.88;100441.81;4948209;28;20468;-82
2022/05/14 06:23:43;;;;;;;48.53;22.90;;;;;;;22.21;46.58;100452.44;4947392;29;20036;-81
2022/05/14 06:26:09;;;;;;;54.25;25.25;;;;;;;22.30;46.68;100445.72;4953042;28;20031;-81
2022/05/14 06:28:34;;;;;;;54.60;29.65;;;;;;;22.39;46.73;100452.72;4954711;28;20081;-80
2022/05/14 06:31:00;;;;;;;53.42;31.85;;;;;;;22.39;46.86;100436.28;4955265;28;20081;-80
2022/05/14 06:33:26;;;;;;;71.47;35.70;;;;;;;22.43;46.93;100434.81;4951893;29;20027;-81
2022/05/14 06:35:52;;;;;;;75.38;39.42;;;;;;;22.48;46.97;100446.00;4953471;28;20306;-80
2022/05/14 06:38:19;;;;;;;87.50;43.03;;;;;;;22.48;47.06;100443.25;4950741;29;21573;-82
2022/05/14 06:40:45;;;;;;;93.45;48.38;;;;;;;22.42;47.30;100438.59;4948997;28;20037;-80
2022/05/14 06:43:11;;;;;;;111.28;51.97;;;;;;;22.46;47.62;100445.38;4955352;28;20027;-80
2022/05/14 06:45:36;;;;;;;94.97;54.05;;;;;;;22.54;47.58;100436.94;4954432;29;20484;-80
2022/05/14 06:48:02;;;;;;;92.13;54.78;;;;;;;22.64;47.67;100439.28;4952913;29;20019;-81
2022/05/14 06:50:31;;;;;;;92.07;52.95;;;;;;;22.75;47.44;100433.25;4961563;28;20011;-80
2022/05/14 06:53:01;;;;;;;96.45;53.03;;;;;;;22.78;47.73;100428.16;4974036;28;20035;-80
2022/05/14 06:55:32;;;;;;;95.38;50.13;;;;;;;22.97;47.51;100436.63;4956024;28;20064;-81
2022/05/14 06:57:58;;;;;;;81.38;47.67;;;;;;;23.09;47.21;100424.81;4954615;28;20024;-81
2022/05/14 07:00:24;;;;;;;84.18;42.65;;;;;;;23.16;46.52;100422.09;4949018;29;20035;-80
2022/05/14 07:02:50;;;;;;;80.78;43.92;;;;;;;23.22;46.30;100430.31;4945378;29;20502;-80
2022/05/14 07:08:00;;;;;;;77.85;41.13;;;;;;;23.47;46.23;100426.94;4955395;29;20029;-82
2022/05/14 07:10:26;;;;;;;78.00;40.58;;;;;;;23.55;45.96;100430.31;4954955;29;20035;-82
2022/05/14 07:12:51;;;;;;;80.45;38.10;;;;;;;23.68;45.61;100430.28;4955549;29;20027;-84
2022/05/14 07:15:17;;;;;;;82.93;37.92;;;;;;;23.72;45.30;100434.31;4972140;28;20027;-86
2022/05/14 07:17:42;;;;;;;72.28;36.35;;;;;;;23.83;45.31;100419.06;4958815;28;20034;-84
2022/05/14 07:20:09;;;;;;;98.45;35.30;;;;;;;23.89;44.61;100420.09;4958217;28;20027;-82
2022/05/14 07:22:34;;;;;;;66.05;25.20;;;;;;;24.01;44.40;100418.34;4959116;28;20027;-83
2022/05/14 07:25:00;;;;;;;53.35;24.15;;;;;;;24.18;44.20;100427.84;4958470;29;20085;-83
2022/05/14 07:27:25;;;;;;;47.40;20.20;;;;;;;24.08;43.08;100436.50;4946915;28;20019;-84
2022/05/14 07:29:51;;;;;;;49.97;19.30;;;;;;;24.21;43.25;100431.00;4939411;29;20114;-78
2022/05/14 07:32:18;;;;;;;51.90;19.60;;;;;;;24.31;43.06;100430.53;4964062;28;20026;-81
2022/05/14 07:34:45;;;;;;;54.25;18.17;;;;;;;24.45;42.82;100445.91;4958351;28;20177;-80
2022/05/14 07:37:38;;;;;;;38.13;16.73;;;;;;;24.44;43.03;100435.94;4957831;28;20034;-83
2022/05/14 07:40:11;;;;;;;38.83;17.42;;;;;;;24.35;43.07;100442.75;4957771;28;20027;-78
2022/05/14 07:42:47;;;;;;;38.03;16.20;;;;;;;24.47;42.77;100442.91;4957793;28;20024;-80
2022/05/14 07:45:23;;;;;;;30.05;16.55;;;;;;;24.50;42.84;100442.47;4957309;28;20023;-83
2022/05/14 07:47:50;;;;;;;37.17;15.93;;;;;;;24.68;42.63;100448.94;4957594;28;20015;-79
2022/05/14 07:50:17;;;;;;;40.72;14.93;;;;;;;24.74;42.19;100459.03;4956439;28;20032;-80
2022/05/14 07:52:43;;;;;;;28.95;14.82;;;;;;;24.83;42.34;100452.25;4957695;28;20039;-80
2022/05/14 07:55:09;;;;;;;38.95;14.55;;;;;;;24.86;42.07;100448.25;4957335;28;20497;-79
2022/05/14 07:57:35;;;;;;;42.22;13.98;;;;;;;25.01;42.10;100454.25;4957442;28;20019;-79
2022/05/14 08:00:04;;;;;;;36.35;14.20;;;;;;;25.19;42.00;100450.72;4959046;28;20023;-79
2022/05/14 08:02:31;;;;;;;29.02;13.38;;;;;;;25.27;41.71;100459.56;4957246;28;20402;-80
2022/05/14 08:04:58;;;;;;;21.50;12.88;;;;;;;25.46;41.56;100454.94;4959135;28;20023;-80
2022/05/14 08:07:24;;;;;;;34.80;12.50;;;;;;;25.58;41.21;100450.41;4957445;28;20726;-80
2022/05/14 08:09:49;;;;;;;30.95;11.10;;;;;;;25.76;41.24;100455.94;4956690;28;20054;-78
2022/05/14 08:12:15;;;;;;;28.23;11.35;;;;;;;25.89;41.10;100452.22;4957068;28;20557;-80
2022/05/14 08:14:41;;;;;;;35.83;11.23;;;;;;;26.03;40.98;100447.38;4957905;28;20102;-77
2022/05/14 08:17:12;;;;;;;26.00;10.43;;;;;;;26.09;40.56;100451.97;4956802;28;20041;-80
2022/05/14 08:19:37;;;;;;;32.60;9.27;;;;;;;26.21;40.27;100451.00;4956215;28;20121;-80
2022/05/14 08:24:48;;;;;;;20.95;9.30;;;;;;;26.34;40.32;100453.59;4956592;29;20074;-78
2022/05/14 08:27:14;;;;;;;26.90;8.55;;;;;;;26.37;40.19;100444.88;4956337;28;20067;-79
2022/05/14 08:29:41;;;;;;;26.50;7.68;;;;;;;26.46;40.41;100450.91;4964218;29;20023;-77
2022/05/14 08:32:07;;;;;;;27.48;8.40;;;;;;;26.57;40.29;100450.13;4969301;29;20054;-78
2022/05/14 08:34:33;;;;;;;39.42;8.90;;;;;;;26.74;40.24;100453.06;4956714;28;20035;-80
2022/05/14 08:36:59;;;;;;;21.13;8.88;;;;;;;26.93;40.34;100454.72;4956576;29;20081;-82
2022/05/14 08:39:28;;;;;;;30.63;8.57;;;;;;;27.04;39.86;100460.28;4957259;29;20516;-82
2022/05/14 08:41:55;;;;;;;15.65;7.43;;;;;;;27.03;39.57;100447.53;4958459;29;20037;-81
2022/05/14 08:44:25;;;;;;;25.98;7.95;;;;;;;27.03;40.22;100461.34;4957719;29;20379;-81
2022/05/14 08:47:03;;;;;;;12.85;6.22;;;;;;;26.92;39.81;100469.59;4955840;29;20027;-80
2022/05/14 08:49:46;;;;;;;24.17;7.75;;;;;;;26.79;40.37;100465.06;4955940;29;20047;-80
2022/05/14 08:52:20;;;;;;;;;;;;;;;26.64;40.81;100472.94;4956493;29;20038;-82
2022/05/14 08:54:46;;;;;;;22.27;8.93;;;;;;;26.53;40.96;100454.41;4972893;28;19914;-84
2022/05/14 08:57:23;;;;;;;32.58;15.38;;;;;;;26.78;40.80;100473.59;4956853;29;20518;-87
2022/05/14 08:59:59;;;;;;;30.23;13.10;;;;;;;26.84;40.70;100473.53;4956402;29;20035;-80
2022/05/14 09:02:32;;;;;;;29.20;11.65;;;;;;;26.99;41.10;100482.22;4959326;28;20051;-85
2022/05/14 09:05:08;;;;;;;42.72;14.93;;;;;;;26.99;41.34;100486.91;4956857;28;20481;-84
2022/05/14 09:07:34;;;;;;;27.35;13.10;;;;;;;26.93;41.61;100474.88;4966041;28;20027;-83
2022/05/14 09:10:00;;;;;;;21.38;13.15;;;;;;;26.89;41.34;100473.66;4969884;28;20023;-84
2022/05/14 09:12:30;;;;;;;20.35;9.85;;;;;;;26.87;41.63;100473.06;4969712;28;20112;-85
2022/05/14 09:15:06;;;;;;;23.60;10.05;;;;;;;26.94;41.64;100489.53;4968464;29;20059;-84
2022/05/14 09:17:32;;;;;;;38.67;11.35;;;;;;;26.93;42.66;100479.56;4968871;28;20136;-84
2022/05/14 09:19:59;;;;;;;25.90;9.15;;;;;;;26.99;41.36;100487.75;4959142;28;20461;-84
2022/05/14 09:22:32;;;;;;;22.42;8.25;;;;;;;27.03;41.16;100485.38;4972341;28;20035;-85
2022/05/14 09:25:19;;;;;;;23.17;8.65;;;;;;;27.19;41.25;100492.09;4958109;29;20039;-83
2022/05/14 09:27:51;;;;;;;25.52;7.60;;;;;;;27.23;41.60;100482.28;4956994;29;20512;-84
2022/05/14 09:30:25;;;;;;;;;;;;;;;27.17;41.83;100486.00;4958417;28;20035;-83
2022/05/14 09:32:50;;;;;;;29.70;7.28;;;;;;;26.87;42.14;100484.13;4948617;29;20341;-86
2022/05/14 09:35:23;;;;;;;22.60;6.90;;;;;;;26.66;42.08;100484.59;4936676;29;20564;-83
2022/05/14 09:37:50;;;;;;;33.78;8.38;;;;;;;26.57;42.09;100483.22;4938322;29;20106;-83
2022/05/14 09:40:28;;;;;;;43.15;8.63;;;;;;;26.61;42.00;100473.41;4956075;28;20031;-83
2022/05/14 09:43:11;;;;;;;27.55;8.27;;;;;;;26.64;42.03;100472.94;4955934;28;20027;-84
2022/05/14 09:45:39;;;;;;;30.08;7.47;;;;;;;26.81;42.06;100474.00;4955092;29;20027;-90
2022/05/14 09:48:15;;;;;;;32.60;8.63;;;;;;;26.99;42.05;100470.34;4955546;28;20030;-90
2022/05/14 09:50:42;;;;;;;71.40;11.68;;;;;;;27.26;42.02;100474.38;4972355;28;20046;-90
2022/05/14 09:53:08;;;;;;;40.95;9.50;;;;;;;27.35;42.50;100466.56;4958347;28;20074;-88
2022/05/14 09:55:54;;;;;;;34.58;10.77;;;;;;;27.41;42.86;100451.81;4956235;29;20035;-90
2022/05/14 09:58:37;;;;;;;34.10;7.70;;;;;;;27.51;40.80;100452.09;4955386;29;20027;-83
2022/05/14 10:01:18;;;;;;;18.13;6.47;;;;;;;27.55;40.43;100472.66;4955784;29;20390;-91
2022/05/14 10:04:17;;;;;;;29.63;7.40;;;;;;;27.45;40.15;100448.38;4958381;28;20054;-93
2022/05/14 10:06:58;;;;;;;33.50;7.20;;;;;;;27.56;40.01;100466.00;4958953;28;20441;-82
2022/05/14 10:09:56;;;;;;;25.23;7.80;;;;;;;27.46;40.49;100458.31;4974507;28;20031;-86
2022/05/14 10:12:32;;;;;;;17.33;6.72;;;;;;;27.56;40.79;100452.19;4973810;28;20049;-88
2022/05/14 10:15:11;;;;;;;18.48;6.95;;;;;;;27.44;40.81;100452.19;4955108;29;20134;-91
2022/05/14 10:17:46;;;;;;;28.73;9.57;;;;;;;27.40;41.30;100463.94;4956802;28;20030;-87
2022/05/14 10:20:38;;;;;;;22.98;7.30;;;;;;;27.37;41.05;100459.72;4957309;28;20089;-85
2022/05/14 10:26:45;;;;;;;20.02;8.52;;;;;;;27.00;41.70;100472.03;4941139;28;20416;-83
2022/05/14 10:29:44;;;;;;;29.30;7.93;;;;;;;27.02;41.49;100467.97;4955131;28;20466;-84
2022/05/14 10:32:24;;;;;;;28.48;8.30;;;;;;;26.67;39.01;100466.94;4954473;29;20019;-84
2022/05/14 10:35:08;;;;;;;24.15;7.32;;;;;;;26.44;38.96;100475.97;4954711;28;20062;-80
2022/05/14 10:37:53;;;;;;;22.95;7.68;;;;;;;26.64;39.55;100470.16;4955945;28;20035;-87
2022/05/14 10:40:48;;;;;;;13.48;6.95;;;;;;;26.62;39.10;100469.56;4962570;28;20083;-91
2022/05/14 10:43:41;;;;;;;25.83;9.27;;;;;;;26.66;39.55;100470.78;4958660;28;20027;-87
2022/05/14 10:46:14;;;;;;;36.33;10.02;;;;;;;26.62;40.22;100450.25;4961795;29;20107;-86
2022/05/14 10:49:34;;;;;;;25.00;8.32;;;;;;;26.77;40.15;100467.22;4977636;28;20042;-89
2022/05/14 10:52:00;;;;;;;15.50;7.05;;;;;;;26.92;39.48;100458.53;4923784;29;20036;-86
2022/05/14 10:54:32;;;;;;;26.73;7.05;;;;;;;27.01;39.49;100463.50;4957382;29;20512;-81
2022/05/14 10:57:02;;;;;;;16.02;7.43;;;;;;;27.14;39.98;100456.09;4969566;28;20550;-89
2022/05/14 10:59:45;;;;;;;19.17;6.45;;;;;;;27.30;39.96;100456.25;4968153;28;20035;-94
2022/05/14 11:02:13;;;;;;;22.20;7.70;;;;;;;27.36;39.71;100452.53;4966787;28;20055;-85
2022/05/14 11:04:38;;;;;;;21.42;5.80;;;;;;;27.58;40.13;100453.63;4968223;28;20465;-90
2022/05/14 11:07:08;;;;;;;22.30;6.78;;;;;;;27.49;39.17;100426.63;4969260;28;20026;-84
2022/05/14 11:09:33;;;;;;;19.05;6.32;;;;;;;27.69;38.71;100446.44;4962289;28;20023;-84
2022/05/14 11:12:02;;;;;;;27.70;8.68;;;;;;;27.64;39.84;100418.69;4959570;28;20038;-89
2022/05/14 11:14:44;;;;;;;14.20;6.43;;;;;;;27.79;39.45;100441.16;4964418;28;20047;-89
2022/05/14 11:17:33;;;;;;;11.88;5.82;;;;;;;27.86;39.62;100438.25;4966981;28;20023;-88
2022/05/14 11:20:02;;;;;;;16.80;7.20;;;;;;;28.05;39.23;100442.56;4961503;28;20030;-85
2022/05/14 11:22:34;;;;;;;17.90;5.90;;;;;;;28.19;39.08;100438.47;4966267;28;20031;-86
2022/05/14 11:25:22;;;;;;;20.02;6.75;;;;;;;28.32;38.55;100442.88;4960567;28;20034;-85
2022/05/14 11:28:27;;;;;;;14.48;6.28;;;;;;;28.31;38.86;100435.66;4945391;28;20510;-76
2022/05/14 11:30:55;;;;;;;16.33;6.80;;;;;;;28.30;38.81;100439.50;4946594;28;20114;-90
2022/05/14 11:33:26;;;;;;;29.08;6.40;;;;;;;28.39;38.33;100436.13;4941612;28;20042;-91
2022/05/14 11:35:59;;;;;;;16.50;5.55;;;;;;;28.35;38.50;100426.63;4941877;29;20098;-91
2022/05/14 11:38:25;;;;;;;24.27;6.68;;;;;;;28.35;38.86;100426.63;4960672;28;20058;-83
2022/05/14 11:41:00;;;;;;;21.73;5.35;;;;;;;28.49;38.58;100413.34;4959120;29;20447;-84
2022/05/14 11:43:34;;;;;;;22.90;5.30;;;;;;;28.53;38.91;100406.25;4959397;28;20134;-82
2022/05/14 11:46:05;;;;;;;12.63;5.22;;;;;;;28.75;38.15;100421.06;4942057;29;20051;-83